createdAt,value
2023-05-07T00:02:23.946Z,2.93
2023-05-07T00:04:51.455Z,2.97
2023-05-07T00:07:18.736Z,3.00
2023-05-07T00:09:45.931Z,2.98
2023-05-07T00:12:12.996Z,3.02
2023-05-07T00:14:40.024Z,3.04
2023-05-07T00:17:07.025Z,2.96
2023-05-07T00:19:34.129Z,2.94
2023-05-07T00:22:01.228Z,2.95
2023-05-07T00:24:28.410Z,2.91
2023-05-07T00:26:55.414Z,2.94
2023-05-07T00:29:22.455Z,2.95
2023-05-07T00:31:51.060Z,2.89
2023-05-07T00:34:18.194Z,2.91
2023-05-07T00:36:45.682Z,2.85
2023-05-07T00:39:12.697Z,2.83
2023-05-07T00:41:39.751Z,2.80
2023-05-07T00:44:06.762Z,2.78
2023-05-07T00:46:34.348Z,2.51
2023-05-07T00:49:01.997Z,2.81
2023-05-07T00:51:30.426Z,2.76
2023-05-07T00:53:57.560Z,2.68
2023-05-07T00:56:24.948Z,2.59
2023-05-07T00:58:52.096Z,2.64
2023-05-07T01:01:19.252Z,2.69
2023-05-07T01:03:46.450Z,2.59
2023-05-07T01:06:17.784Z,2.56
2023-05-07T01:08:46.184Z,2.45
2023-05-07T01:11:13.647Z,2.50
2023-05-07T01:13:41.922Z,2.57
2023-05-07T01:16:10.912Z,2.54
2023-05-07T01:18:38.123Z,2.55
2023-05-07T01:21:06.726Z,2.50
2023-05-07T01:23:34.989Z,2.45
2023-05-07T01:26:02.024Z,2.40
2023-05-07T01:28:31.142Z,2.35
2023-05-07T01:31:05.128Z,2.38
2023-05-07T01:33:35.675Z,2.37
2023-05-07T01:36:07.454Z,2.38
2023-05-07T01:38:35.004Z,2.38
2023-05-07T01:41:02.697Z,2.39
2023-05-07T01:43:31.565Z,2.39
2023-05-07T01:46:00.115Z,2.46
2023-05-07T01:48:27.726Z,2.53
2023-05-07T01:50:54.988Z,2.52
2023-05-07T01:53:22.018Z,2.49
2023-05-07T01:55:49.152Z,2.41
2023-05-07T01:58:17.270Z,2.36
2023-05-07T02:00:44.340Z,2.30
2023-05-07T02:03:11.480Z,2.44
2023-05-07T02:05:46.006Z,2.49
2023-05-07T02:08:20.600Z,2.43
2023-05-07T02:10:47.645Z,2.47
2023-05-07T02:13:14.766Z,2.47
2023-05-07T02:15:42.129Z,2.42
2023-05-07T02:18:12.600Z,2.39
2023-05-07T02:20:39.797Z,2.42
2023-05-07T02:23:06.725Z,2.40
2023-05-07T02:25:33.806Z,2.35
2023-05-07T02:28:01.269Z,2.51
2023-05-07T02:30:41.163Z,2.58
2023-05-07T02:33:09.636Z,2.59
2023-05-07T02:35:37.063Z,2.55
2023-05-07T02:38:04.192Z,2.60
2023-05-07T02:40:34.761Z,2.53
2023-05-07T02:43:01.795Z,2.51
2023-05-07T02:45:29.426Z,2.53
2023-05-07T02:47:56.473Z,2.43
2023-05-07T02:50:23.730Z,2.29
2023-05-07T02:52:51.089Z,2.65
2023-05-07T02:55:18.271Z,2.64
2023-05-07T02:57:45.404Z,2.80
2023-05-07T03:00:17.608Z,2.87
2023-05-07T03:02:52.481Z,2.93
2023-05-07T03:05:19.795Z,2.93
2023-05-07T03:07:47.286Z,2.94
2023-05-07T03:10:15.477Z,2.85
2023-05-07T03:12:42.962Z,2.99
2023-05-07T03:15:13.908Z,3.07
2023-05-07T03:17:41.482Z,3.15
2023-05-07T03:20:11.254Z,3.23
2023-05-07T03:22:39.177Z,3.25
2023-05-07T03:25:07.497Z,3.14
2023-05-07T03:27:37.696Z,3.19
2023-05-07T03:30:05.468Z,3.35
2023-05-07T03:32:33.705Z,3.29
2023-05-07T03:35:00.815Z,3.31
2023-05-07T03:37:27.878Z,3.46
2023-05-07T03:39:54.996Z,3.50
2023-05-07T03:42:22.345Z,3.48
2023-05-07T03:44:52.555Z,3.61
2023-05-07T03:47:20.073Z,3.66
2023-05-07T03:49:47.855Z,3.75
2023-05-07T03:52:15.670Z,3.84
2023-05-07T03:54:42.728Z,3.82
2023-05-07T03:57:11.983Z,3.96
2023-05-07T03:59:39.096Z,4.03
2023-05-07T04:02:08.857Z,4.14
2023-05-07T04:04:35.991Z,4.07
2023-05-07T04:07:03.102Z,4.37
2023-05-07T04:09:31.706Z,4.48
2023-05-07T04:11:58.782Z,4.61
2023-05-07T04:14:25.870Z,4.80
2023-05-07T04:16:53.364Z,4.92
2023-05-07T04:19:20.637Z,5.05
2023-05-07T04:21:50.891Z,5.11
2023-05-07T04:24:18.029Z,5.21
2023-05-07T04:26:46.144Z,5.27
2023-05-07T04:29:13.354Z,5.22
2023-05-07T04:31:40.560Z,5.72
2023-05-07T04:34:08.406Z,5.86
2023-05-07T04:36:35.640Z,5.93
2023-05-07T04:39:08.291Z,6.02
2023-05-07T04:41:37.686Z,6.07
2023-05-07T04:44:07.086Z,6.10
2023-05-07T04:46:35.384Z,6.13
2023-05-07T04:49:04.397Z,6.16
2023-05-07T04:51:33.813Z,6.10
2023-05-07T04:54:01.195Z,6.09
2023-05-07T04:56:33.396Z,6.08
2023-05-07T04:59:01.816Z,6.16
2023-05-07T05:01:29.838Z,6.17
2023-05-07T05:03:57.395Z,6.16
2023-05-07T05:06:24.537Z,6.19
2023-05-07T05:08:52.847Z,6.20
2023-05-07T05:11:19.918Z,6.18
2023-05-07T05:13:50.008Z,6.22
2023-05-07T05:16:20.325Z,6.27
2023-05-07T05:18:48.490Z,6.41
2023-05-07T05:21:18.521Z,6.48
2023-05-07T05:23:48.295Z,6.55
2023-05-07T05:26:18.929Z,6.56
2023-05-07T05:28:46.175Z,6.71
2023-05-07T05:31:13.296Z,6.85
2023-05-07T05:33:41.091Z,6.87
2023-05-07T05:36:11.339Z,7.04
2023-05-07T05:38:38.991Z,7.11
2023-05-07T05:41:06.925Z,7.22
2023-05-07T05:43:33.947Z,7.35
2023-05-07T05:46:01.985Z,7.30
2023-05-07T05:48:31.081Z,7.28
2023-05-07T05:50:59.769Z,7.46
2023-05-07T05:53:26.853Z,7.45
2023-05-07T05:55:55.151Z,7.50
2023-05-07T05:58:22.637Z,7.32
2023-05-07T06:00:56.351Z,7.64
2023-05-07T06:03:25.606Z,7.76
2023-05-07T06:05:52.656Z,8.10
2023-05-07T06:08:22.368Z,8.33
2023-05-07T06:10:49.513Z,8.61
2023-05-07T06:13:17.062Z,8.74
2023-05-07T06:15:44.564Z,8.97
2023-05-07T06:18:13.808Z,9.16
2023-05-07T06:20:41.949Z,9.37
2023-05-07T06:23:17.631Z,9.36
2023-05-07T06:25:54.072Z,9.28
2023-05-07T06:28:25.586Z,9.13
2023-05-07T06:30:52.666Z,9.45
2023-05-07T06:33:20.900Z,9.54
2023-05-07T06:35:48.366Z,9.47
2023-05-07T06:38:16.048Z,9.19
2023-05-07T06:40:44.675Z,8.92
2023-05-07T06:43:12.145Z,8.69
2023-05-07T06:45:48.628Z,8.65
2023-05-07T06:48:16.075Z,8.60
2023-05-07T06:50:51.561Z,8.62
2023-05-07T06:53:19.510Z,8.65
2023-05-07T06:55:47.117Z,8.56
2023-05-07T06:58:15.653Z,8.36
2023-05-07T07:00:43.042Z,9.06
2023-05-07T07:03:10.928Z,9.43
2023-05-07T07:05:38.257Z,9.54
2023-05-07T07:08:05.893Z,9.47
2023-05-07T07:10:33.015Z,9.26
2023-05-07T07:13:01.035Z,9.49
2023-05-07T07:15:28.381Z,9.56
2023-05-07T07:17:56.746Z,9.70
2023-05-07T07:20:25.149Z,9.78
2023-05-07T07:22:52.234Z,9.78
2023-05-07T07:25:19.277Z,9.87
2023-05-07T07:27:47.956Z,9.73
2023-05-07T07:30:16.638Z,9.92
2023-05-07T07:32:47.764Z,9.78
2023-05-07T07:35:15.843Z,9.96
2023-05-07T07:37:44.512Z,10.15
2023-05-07T07:40:14.331Z,10.21
2023-05-07T07:42:42.057Z,10.14
2023-05-07T07:45:09.724Z,10.32
2023-05-07T07:47:41.624Z,10.31
2023-05-07T07:50:09.876Z,10.26
2023-05-07T07:52:37.390Z,10.32
2023-05-07T07:55:05.687Z,10.26
2023-05-07T07:57:33.374Z,10.08
2023-05-07T08:00:01.948Z,9.77
2023-05-07T08:02:33.783Z,9.66
2023-05-07T08:05:01.035Z,9.40
2023-05-07T08:07:28.131Z,9.39
2023-05-07T08:09:55.767Z,9.60
2023-05-07T08:12:25.094Z,9.57
2023-05-07T08:14:52.334Z,9.67
2023-05-07T08:17:19.753Z,9.75
2023-05-07T08:19:47.389Z,9.64
2023-05-07T08:22:15.508Z,9.72
2023-05-07T08:24:42.728Z,9.61
2023-05-07T08:27:10.385Z,9.63
2023-05-07T08:29:38.334Z,9.54
2023-05-07T08:32:05.641Z,9.49
2023-05-07T08:34:32.766Z,9.53
2023-05-07T08:37:04.653Z,9.51
2023-05-07T08:39:33.163Z,9.47
2023-05-07T08:42:03.423Z,9.49
2023-05-07T08:44:35.242Z,9.77
2023-05-07T08:47:03.741Z,10.58
2023-05-07T08:49:32.673Z,11.23
2023-05-07T08:52:00.683Z,11.49
2023-05-07T08:54:30.318Z,11.62
2023-05-07T08:56:59.197Z,11.68
2023-05-07T08:59:27.110Z,11.47
2023-05-07T09:01:54.533Z,11.34
2023-05-07T09:04:21.736Z,11.17
2023-05-07T09:06:49.236Z,10.89
2023-05-07T09:09:19.959Z,10.39
2023-05-07T09:11:47.558Z,10.36
2023-05-07T09:14:17.080Z,10.12
2023-05-07T09:16:47.787Z,9.99
2023-05-07T09:19:15.229Z,9.98
2023-05-07T09:21:46.351Z,10.04
2023-05-07T09:24:17.071Z,10.03
2023-05-07T09:26:45.009Z,10.32
2023-05-07T09:29:12.912Z,10.58
2023-05-07T09:31:40.999Z,10.79
2023-05-07T09:34:10.885Z,10.85
2023-05-07T09:36:41.436Z,11.09
2023-05-07T09:39:08.888Z,11.20
2023-05-07T09:41:45.329Z,11.38
2023-05-07T09:44:19.803Z,11.50
2023-05-07T09:46:55.920Z,11.78
2023-05-07T09:49:36.031Z,11.95
2023-05-07T09:52:09.704Z,12.19
2023-05-07T09:54:41.153Z,12.14
2023-05-07T09:57:10.677Z,12.04
2023-05-07T09:59:39.334Z,12.00
2023-05-07T10:02:11.510Z,11.59
2023-05-07T10:04:47.561Z,11.77
2023-05-07T10:07:17.676Z,11.84
2023-05-07T10:09:49.162Z,11.84
2023-05-07T10:12:25.547Z,11.71
2023-05-07T10:14:55.596Z,11.68
2023-05-07T10:17:24.698Z,11.57
2023-05-07T10:19:55.324Z,11.50
2023-05-07T10:22:24.649Z,11.43
2023-05-07T10:24:55.633Z,11.42
2023-05-07T10:27:24.783Z,11.30
2023-05-07T10:30:27.421Z,11.20
2023-05-07T10:33:06.989Z,11.06
2023-05-07T10:35:45.106Z,11.03
2023-05-07T10:38:13.959Z,10.91
2023-05-07T10:40:43.458Z,10.76
2023-05-07T10:43:11.212Z,10.31
2023-05-07T10:46:16.548Z,10.72
2023-05-07T10:49:05.397Z,10.59
2023-05-07T10:52:15.707Z,10.52
2023-05-07T10:55:19.900Z,10.43
2023-05-07T10:58:32.834Z,10.27
2023-05-07T11:01:50.660Z,10.26
2023-05-07T11:04:25.700Z,10.18
2023-05-07T11:07:10.562Z,10.05
2023-05-07T11:09:52.638Z,10.20
2023-05-07T11:12:44.594Z,10.30
2023-05-07T11:15:38.512Z,10.37
2023-05-07T11:18:13.771Z,10.51
2023-05-07T11:20:55.971Z,10.69
2023-05-07T11:23:41.789Z,11.06
2023-05-07T11:26:29.896Z,11.36
2023-05-07T11:28:57.934Z,11.59
2023-05-07T11:31:29.754Z,11.61
2023-05-07T11:34:00.337Z,11.72
2023-05-07T11:36:32.036Z,11.81
2023-05-07T11:39:01.114Z,12.04
2023-05-07T11:41:40.354Z,12.22
2023-05-07T11:44:07.419Z,12.21
2023-05-07T11:46:34.933Z,12.07
2023-05-07T11:49:02.029Z,12.30
2023-05-07T11:51:29.258Z,12.30
2023-05-07T11:53:56.342Z,12.29
2023-05-07T11:56:23.436Z,12.28
2023-05-07T11:58:52.034Z,12.15
2023-05-07T12:01:19.543Z,12.10
2023-05-07T12:03:47.355Z,12.00
2023-05-07T12:06:16.815Z,11.97
2023-05-07T12:08:47.714Z,11.80
2023-05-07T12:11:24.574Z,11.67
2023-05-07T12:13:51.768Z,11.50
2023-05-07T12:16:20.336Z,11.64
2023-05-07T12:18:47.886Z,11.68
2023-05-07T12:21:15.247Z,11.80
2023-05-07T12:23:42.445Z,11.81
2023-05-07T12:26:09.661Z,11.87
2023-05-07T12:28:40.486Z,11.85
2023-05-07T12:31:08.932Z,11.96
2023-05-07T12:33:37.021Z,11.97
2023-05-07T12:36:07.745Z,11.84
2023-05-07T12:38:41.026Z,11.90
2023-05-07T12:41:10.304Z,11.83
2023-05-07T12:43:37.843Z,11.70
2023-05-07T12:46:08.096Z,11.56
2023-05-07T12:48:37.952Z,11.38
2023-05-07T12:51:07.247Z,11.32
2023-05-07T12:53:34.415Z,11.31
2023-05-07T12:56:01.873Z,11.46
2023-05-07T12:58:31.682Z,11.52
2023-05-07T13:01:01.706Z,11.54
2023-05-07T13:03:31.490Z,11.57
2023-05-07T13:06:05.565Z,11.44
2023-05-07T13:08:33.948Z,11.51
2023-05-07T13:11:04.606Z,11.49
2023-05-07T13:13:33.505Z,11.50
2023-05-07T13:16:01.889Z,11.48
2023-05-07T13:18:31.641Z,11.37
2023-05-07T13:20:59.085Z,11.25
2023-05-07T13:23:26.229Z,11.29
2023-05-07T13:25:57.021Z,11.22
2023-05-07T13:28:25.551Z,11.09
2023-05-07T13:30:55.801Z,11.14
2023-05-07T13:33:22.971Z,11.05
2023-05-07T13:35:50.064Z,10.97
2023-05-07T13:38:17.339Z,10.79
2023-05-07T13:40:44.555Z,10.82
2023-05-07T13:43:11.736Z,10.70
2023-05-07T13:45:38.940Z,10.57
2023-05-07T13:48:06.267Z,10.59
2023-05-07T13:50:33.368Z,10.54
2023-05-07T13:53:00.383Z,10.43
2023-05-07T13:55:30.117Z,10.29
2023-05-07T13:58:02.165Z,10.43
2023-05-07T14:00:30.125Z,10.36
2023-05-07T14:02:57.972Z,10.43
2023-05-07T14:05:25.694Z,10.44
2023-05-07T14:07:53.227Z,10.40
2023-05-07T14:10:21.024Z,10.32
2023-05-07T14:12:48.407Z,10.31
2023-05-07T14:15:17.177Z,10.27
2023-05-07T14:17:45.273Z,10.22
2023-05-07T14:20:14.114Z,10.17
2023-05-07T14:22:41.586Z,10.23
2023-05-07T14:25:10.860Z,10.27
2023-05-07T14:27:38.138Z,10.27
2023-05-07T14:30:05.961Z,10.29
2023-05-07T14:32:34.619Z,10.36
2023-05-07T14:35:01.886Z,10.28
2023-05-07T14:37:33.390Z,10.37
2023-05-07T14:40:00.493Z,10.39
2023-05-07T14:42:27.460Z,10.40
2023-05-07T14:44:54.632Z,10.43
2023-05-07T14:47:21.624Z,10.47
2023-05-07T14:49:48.715Z,10.45
2023-05-07T14:52:15.834Z,10.48
2023-05-07T14:54:42.895Z,10.48
2023-05-07T14:57:11.734Z,10.47
2023-05-07T14:59:39.377Z,10.48
2023-05-07T15:02:09.324Z,10.41
2023-05-07T15:04:39.333Z,10.45
2023-05-07T15:07:06.464Z,10.10
2023-05-07T15:09:33.507Z,10.31
2023-05-07T15:12:01.402Z,10.24
2023-05-07T15:14:28.500Z,10.22
2023-05-07T15:16:55.510Z,10.18
2023-05-07T15:19:23.555Z,10.16
2023-05-07T15:21:50.623Z,10.04
2023-05-07T15:24:17.626Z,9.98
2023-05-07T15:26:44.626Z,10.01
2023-05-07T15:29:11.758Z,9.96
2023-05-07T15:31:40.090Z,10.07
2023-05-07T15:34:07.474Z,10.06
2023-05-07T15:36:34.572Z,10.04
2023-05-07T15:39:03.934Z,10.12
2023-05-07T15:41:31.326Z,10.05
2023-05-07T15:43:58.360Z,9.95
2023-05-07T15:46:26.710Z,10.15
2023-05-07T15:48:54.592Z,10.04
2023-05-07T15:51:22.962Z,10.06
2023-05-07T15:53:52.063Z,10.00
2023-05-07T15:56:19.264Z,9.98
2023-05-07T15:58:46.579Z,9.95
2023-05-07T16:01:13.752Z,9.87
2023-05-07T16:03:42.023Z,9.94
2023-05-07T16:06:12.102Z,10.00
2023-05-07T16:08:40.487Z,10.07
2023-05-07T16:11:07.619Z,10.05
2023-05-07T16:13:35.540Z,10.11
2023-05-07T16:16:02.816Z,10.09
2023-05-07T16:18:29.887Z,10.07
2023-05-07T16:20:58.065Z,10.00
2023-05-07T16:23:25.131Z,9.86
2023-05-07T16:25:52.135Z,9.93
2023-05-07T16:28:19.178Z,9.90
2023-05-07T16:30:46.247Z,9.78
2023-05-07T16:33:13.273Z,9.74
2023-05-07T16:35:40.470Z,9.82
2023-05-07T16:38:11.339Z,9.70
2023-05-07T16:40:39.718Z,9.65
2023-05-07T16:43:06.849Z,9.65
2023-05-07T16:45:33.996Z,9.74
2023-05-07T16:48:02.996Z,9.55
2023-05-07T16:50:30.476Z,9.62
2023-05-07T16:52:57.576Z,9.59
2023-05-07T16:55:24.928Z,9.52
2023-05-07T16:57:53.059Z,9.55
2023-05-07T17:00:20.236Z,9.52
2023-05-07T17:02:47.391Z,9.49
2023-05-07T17:05:14.907Z,9.39
2023-05-07T17:07:43.136Z,9.45
2023-05-07T17:10:10.657Z,9.39
2023-05-07T17:12:38.169Z,9.23
2023-05-07T17:15:06.112Z,9.18
2023-05-07T17:17:34.747Z,9.06
2023-05-07T17:20:02.051Z,9.05
2023-05-07T17:22:32.849Z,8.94
2023-05-07T17:25:01.334Z,8.82
2023-05-07T17:27:28.669Z,8.89
2023-05-07T17:29:55.736Z,8.86
2023-05-07T17:32:22.928Z,8.83
2023-05-07T17:34:49.974Z,8.49
2023-05-07T17:37:16.992Z,8.79
2023-05-07T17:39:44.434Z,8.77
2023-05-07T17:42:11.497Z,8.70
2023-05-07T17:44:38.559Z,8.45
2023-05-07T17:47:07.001Z,8.27
2023-05-07T17:49:34.000Z,8.56
2023-05-07T17:52:01.002Z,8.59
2023-05-07T17:54:28.299Z,8.57
2023-05-07T17:56:55.506Z,8.51
2023-05-07T17:59:22.592Z,8.42
2023-05-07T18:01:49.999Z,8.29
2023-05-07T18:04:17.366Z,8.11
2023-05-07T18:06:44.421Z,8.21
2023-05-07T18:09:11.600Z,8.08
2023-05-07T18:11:38.722Z,8.01
2023-05-07T18:14:06.095Z,7.85
2023-05-07T18:16:33.204Z,7.94
2023-05-07T18:19:00.363Z,7.92
2023-05-07T18:21:27.489Z,7.83
2023-05-07T18:23:54.599Z,7.90
2023-05-07T18:26:21.746Z,7.97
2023-05-07T18:28:49.057Z,7.84
2023-05-07T18:31:16.264Z,7.93
2023-05-07T18:33:43.605Z,7.93
2023-05-07T18:36:10.948Z,7.96
2023-05-07T18:38:39.067Z,7.97
2023-05-07T18:41:06.425Z,7.91
2023-05-07T18:43:34.259Z,7.76
2023-05-07T18:46:01.602Z,7.92
2023-05-07T18:48:28.860Z,7.77
2023-05-07T18:50:55.966Z,7.85
2023-05-07T18:53:24.001Z,7.71
2023-05-07T18:55:51.975Z,7.61
2023-05-07T18:58:20.221Z,7.44
2023-05-07T19:00:49.051Z,7.43
2023-05-07T19:03:17.276Z,7.32
2023-05-07T19:05:45.591Z,7.18
2023-05-07T19:08:12.953Z,7.12
2023-05-07T19:10:40.071Z,7.06
2023-05-07T19:13:07.306Z,7.11
2023-05-07T19:15:34.676Z,6.90
2023-05-07T19:18:01.863Z,6.99
2023-05-07T19:20:29.527Z,6.95
2023-05-07T19:22:56.904Z,6.93
2023-05-07T19:25:24.082Z,6.78
2023-05-07T19:27:51.361Z,6.83
2023-05-07T19:30:18.790Z,6.78
2023-05-07T19:32:46.101Z,6.72
2023-05-07T19:35:13.498Z,6.74
2023-05-07T19:37:40.700Z,6.77
2023-05-07T19:40:09.502Z,6.77
2023-05-07T19:42:36.817Z,6.72
2023-05-07T19:45:05.320Z,6.78
2023-05-07T19:47:34.354Z,6.77
2023-05-07T19:50:01.721Z,6.61
2023-05-07T19:52:31.389Z,6.65
2023-05-07T19:54:58.466Z,6.74
2023-05-07T19:57:25.528Z,6.64
2023-05-07T19:59:52.654Z,6.69
2023-05-07T20:02:19.787Z,6.79
2023-05-07T20:04:46.883Z,6.80
2023-05-07T20:07:14.139Z,6.65
2023-05-07T20:09:41.321Z,6.64
2023-05-07T20:12:08.723Z,6.73
2023-05-07T20:14:35.866Z,6.48
2023-05-07T20:17:02.974Z,6.45
2023-05-07T20:19:30.088Z,6.49
2023-05-07T20:21:57.220Z,6.55
2023-05-07T20:24:24.586Z,6.51
2023-05-07T20:26:51.674Z,6.42
2023-05-07T20:29:18.681Z,6.40
2023-05-07T20:31:45.700Z,6.42
2023-05-07T20:34:12.791Z,6.42
2023-05-07T20:36:39.874Z,6.39
2023-05-07T20:39:07.581Z,6.32
2023-05-07T20:41:35.910Z,6.24
2023-05-07T20:44:02.899Z,6.30
2023-05-07T20:46:30.388Z,6.30
2023-05-07T20:48:57.523Z,6.20
2023-05-07T20:51:24.582Z,6.25
2023-05-07T20:53:52.078Z,6.20
2023-05-07T20:56:19.162Z,6.16
2023-05-07T20:58:46.338Z,6.10
2023-05-07T21:01:13.442Z,5.99
2023-05-07T21:03:40.551Z,5.92
2023-05-07T21:06:07.602Z,5.98
2023-05-07T21:08:34.676Z,5.96
2023-05-07T21:11:01.816Z,5.62
2023-05-07T21:13:29.251Z,5.94
2023-05-07T21:15:56.446Z,5.86
2023-05-07T21:18:25.376Z,5.89
2023-05-07T21:20:52.552Z,5.84
2023-05-07T21:23:19.636Z,5.81
2023-05-07T21:25:47.766Z,5.68
2023-05-07T21:28:14.829Z,5.72
2023-05-07T21:30:42.138Z,5.58
2023-05-07T21:33:09.268Z,5.70
2023-05-07T21:35:36.837Z,5.68
2023-05-07T21:38:04.033Z,5.67
2023-05-07T21:40:31.734Z,5.61
2023-05-07T21:43:02.255Z,5.62
2023-05-07T21:45:29.445Z,5.63
2023-05-07T21:47:57.036Z,5.60
2023-05-07T21:50:24.314Z,5.56
2023-05-07T21:52:51.411Z,5.44
2023-05-07T21:55:19.069Z,5.44
2023-05-07T21:57:57.505Z,5.48
2023-05-07T22:00:32.428Z,5.42
2023-05-07T22:02:59.551Z,5.42
2023-05-07T22:05:26.708Z,5.37
2023-05-07T22:07:53.707Z,5.38
2023-05-07T22:10:24.502Z,5.35
2023-05-07T22:12:52.638Z,5.21
2023-05-07T22:15:23.728Z,5.15
2023-05-07T22:17:54.793Z,4.88
2023-05-07T22:20:26.900Z,5.13
2023-05-07T22:22:58.886Z,5.21
2023-05-07T22:25:31.829Z,4.87
2023-05-07T22:28:04.732Z,5.12
2023-05-07T22:30:46.158Z,4.65
2023-05-07T22:33:17.920Z,4.48
2023-05-07T22:35:50.144Z,4.77
2023-05-07T22:38:23.746Z,4.90
2023-05-07T22:40:51.418Z,4.70
2023-05-07T22:43:19.857Z,4.87
2023-05-07T22:45:50.334Z,4.82
2023-05-07T22:48:18.379Z,4.83
2023-05-07T22:50:55.251Z,4.79
2023-05-07T22:53:23.718Z,4.61
2023-05-07T22:55:56.143Z,4.71
2023-05-07T22:58:25.024Z,4.77
2023-05-07T23:00:57.844Z,4.72
2023-05-07T23:03:25.915Z,4.44
2023-05-07T23:05:53.648Z,4.43
2023-05-07T23:08:21.019Z,4.54
2023-05-07T23:10:50.854Z,4.54
2023-05-07T23:13:18.198Z,4.52
2023-05-07T23:15:45.552Z,4.54
2023-05-07T23:18:12.960Z,4.44
2023-05-07T23:20:41.362Z,4.55
2023-05-07T23:23:08.538Z,4.47
2023-05-07T23:25:36.182Z,4.19
2023-05-07T23:28:03.584Z,4.55
2023-05-07T23:30:30.741Z,4.54
2023-05-07T23:32:57.787Z,4.51
2023-05-07T23:35:24.757Z,4.46
2023-05-07T23:37:51.810Z,4.44
2023-05-07T23:40:18.850Z,4.43
2023-05-07T23:42:45.920Z,4.45
2023-05-07T23:45:12.940Z,4.00
2023-05-07T23:47:40.058Z,4.41
2023-05-07T23:50:07.433Z,4.40
2023-05-07T23:52:34.436Z,4.29
2023-05-07T23:55:01.421Z,4.34
2023-05-07T23:57:28.688Z,4.35
2023-05-07T23:59:55.877Z,4.22
